sensor_id;sensor_type;location;lat;lon;timestamp;pressure;altitude;pressure_sealevel;temperature;humidity
10462;BME280;5278;42.656;23.374;2023-04-29T00:01:22;94696.25;;;9.40;56.15
10462;BME280;5278;42.656;23.374;2023-04-29T00:03:51;94692.34;;;9.44;56.11
10462;BME280;5278;42.656;23.374;2023-04-29T00:06:20;94692.34;;;9.44;55.64
10462;BME280;5278;42.656;23.374;2023-04-29T00:08:47;94684.56;;;9.44;55.38
10462;BME280;5278;42.656;23.374;2023-04-29T00:11:14;94626.63;;;9.13;55.07
10462;BME280;5278;42.656;23.374;2023-04-29T00:13:41;94687.47;;;9.49;55.07
10462;BME280;5278;42.656;23.374;2023-04-29T00:16:08;94690.88;;;9.50;55.62
10462;BME280;5278;42.656;23.374;2023-04-29T00:18:35;94694.28;;;9.50;55.08
10462;BME280;5278;42.656;23.374;2023-04-29T00:21:02;94695.56;;;9.46;55.24
10462;BME280;5278;42.656;23.374;2023-04-29T00:23:32;94698.81;;;9.48;55.27
10462;BME280;5278;42.656;23.374;2023-04-29T00:25:59;94700.91;;;9.53;55.30
10462;BME280;5278;42.656;23.374;2023-04-29T00:28:26;94699.13;;;9.54;55.16
10462;BME280;5278;42.656;23.374;2023-04-29T00:30:53;94699.59;;;9.57;55.02
10462;BME280;5278;42.656;23.374;2023-04-29T00:33:20;94705.59;;;9.58;55.15
10462;BME280;5278;42.656;23.374;2023-04-29T00:35:47;94703.81;;;9.66;55.52
10462;BME280;5278;42.656;23.374;2023-04-29T00:38:14;94705.09;;;9.62;55.35
10462;BME280;5278;42.656;23.374;2023-04-29T00:40:43;94710.78;;;9.66;55.88
10462;BME280;5278;42.656;23.374;2023-04-29T00:43:10;94703.63;;;9.68;56.03
10462;BME280;5278;42.656;23.374;2023-04-29T00:45:37;94695.06;;;9.59;56.59
10462;BME280;5278;42.656;23.374;2023-04-29T00:48:04;94694.22;;;9.67;56.83
10462;BME280;5278;42.656;23.374;2023-04-29T00:50:32;94690.84;;;9.66;57.04
10462;BME280;5278;42.656;23.374;2023-04-29T00:52:59;94680.94;;;10.62;73.42
10462;BME280;5278;42.656;23.374;2023-04-29T00:55:27;94683.06;;;12.15;56.34
10462;BME280;5278;42.656;23.374;2023-04-29T00:57:56;94674.28;;;13.22;48.22
10462;BME280;5278;42.656;23.374;2023-04-29T01:00:23;94661.25;;;13.85;45.28
10462;BME280;5278;42.656;23.374;2023-04-29T01:02:51;94644.66;;;14.73;42.25
10462;BME280;5278;42.656;23.374;2023-04-29T01:05:19;94650.91;;;14.78;41.85
10462;BME280;5278;42.656;23.374;2023-04-29T01:07:54;94605.25;;;15.07;40.17
10462;BME280;5278;42.656;23.374;2023-04-29T01:10:26;94643.47;;;15.61;39.54
10462;BME280;5278;42.656;23.374;2023-04-29T01:13:06;94641.03;;;15.79;39.00
10462;BME280;5278;42.656;23.374;2023-04-29T01:15:38;94640.22;;;15.72;39.12
10462;BME280;5278;42.656;23.374;2023-04-29T01:18:13;94646.91;;;15.15;40.11
10462;BME280;5278;42.656;23.374;2023-04-29T01:20:41;94653.44;;;14.39;41.64
10462;BME280;5278;42.656;23.374;2023-04-29T01:23:09;94656.09;;;13.63;43.05
10462;BME280;5278;42.656;23.374;2023-04-29T01:25:38;94577.44;;;12.34;45.19
10462;BME280;5278;42.656;23.374;2023-04-29T01:28:12;94647.31;;;12.45;46.91
10462;BME280;5278;42.656;23.374;2023-04-29T01:30:45;94647.59;;;11.99;48.40
10462;BME280;5278;42.656;23.374;2023-04-29T01:33:20;94649.69;;;11.60;49.99
10462;BME280;5278;42.656;23.374;2023-04-29T01:36:04;94656.38;;;11.25;51.68
10462;BME280;5278;42.656;23.374;2023-04-29T01:38:36;94649.31;;;10.96;52.64
10462;BME280;5278;42.656;23.374;2023-04-29T01:41:14;94659.31;;;10.70;54.39
10462;BME280;5278;42.656;23.374;2023-04-29T01:43:42;94655.56;;;10.50;55.34
10462;BME280;5278;42.656;23.374;2023-04-29T01:46:09;94660.19;;;10.31;55.86
10462;BME280;5278;42.656;23.374;2023-04-29T01:48:36;94655.09;;;10.15;55.80
10462;BME280;5278;42.656;23.374;2023-04-29T01:51:04;94650.34;;;9.96;54.26
10462;BME280;5278;42.656;23.374;2023-04-29T01:53:31;94650.09;;;9.75;54.51
10462;BME280;5278;42.656;23.374;2023-04-29T01:55:58;94656.63;;;9.63;55.64
10462;BME280;5278;42.656;23.374;2023-04-29T01:58:26;94676.28;;;9.49;55.96
10462;BME280;5278;42.656;23.374;2023-04-29T02:00:54;94574.06;;;8.72;56.10
10462;BME280;5278;42.656;23.374;2023-04-29T02:03:21;94654.28;;;9.29;56.92
10462;BME280;5278;42.656;23.374;2023-04-29T02:05:48;94653.81;;;9.17;57.92
10462;BME280;5278;42.656;23.374;2023-04-29T02:08:15;94659.34;;;9.14;58.07
10462;BME280;5278;42.656;23.374;2023-04-29T02:10:51;94656.91;;;9.13;57.92
10462;BME280;5278;42.656;23.374;2023-04-29T02:13:18;94677.50;;;9.14;58.32
10462;BME280;5278;42.656;23.374;2023-04-29T02:15:46;94656.59;;;9.07;58.76
10462;BME280;5278;42.656;23.374;2023-04-29T02:18:13;94663.25;;;9.02;59.03
10462;BME280;5278;42.656;23.374;2023-04-29T02:20:40;94663.44;;;9.00;59.71
10462;BME280;5278;42.656;23.374;2023-04-29T02:23:07;94663.91;;;9.04;60.60
10462;BME280;5278;42.656;23.374;2023-04-29T02:25:34;94558.09;;;8.36;60.86
10462;BME280;5278;42.656;23.374;2023-04-29T02:28:01;94662.28;;;9.03;61.35
10462;BME280;5278;42.656;23.374;2023-04-29T02:30:28;94655.47;;;9.02;62.00
10462;BME280;5278;42.656;23.374;2023-04-29T02:32:58;94661.47;;;9.02;62.14
10462;BME280;5278;42.656;23.374;2023-04-29T02:35:25;94650.63;;;8.99;62.26
10462;BME280;5278;42.656;23.374;2023-04-29T02:37:52;94581.41;;;8.36;62.93
10462;BME280;5278;42.656;23.374;2023-04-29T02:40:19;94613.69;;;8.24;62.82
10462;BME280;5278;42.656;23.374;2023-04-29T02:42:46;94618.44;;;8.61;63.25
10462;BME280;5278;42.656;23.374;2023-04-29T02:45:13;94654.03;;;8.91;62.91
10462;BME280;5278;42.656;23.374;2023-04-29T02:47:39;94644.34;;;8.85;63.95
10462;BME280;5278;42.656;23.374;2023-04-29T02:50:08;94655.16;;;8.89;63.95
10462;BME280;5278;42.656;23.374;2023-04-29T02:52:35;94665.53;;;8.89;64.47
10462;BME280;5278;42.656;23.374;2023-04-29T02:55:03;94668.47;;;8.86;64.62
10462;BME280;5278;42.656;23.374;2023-04-29T02:57:30;94669.75;;;8.74;64.67
10462;BME280;5278;42.656;23.374;2023-04-29T02:59:57;94547.06;;;7.86;65.08
10462;BME280;5278;42.656;23.374;2023-04-29T03:02:23;94681.72;;;8.67;64.84
10462;BME280;5278;42.656;23.374;2023-04-29T03:04:50;94683.16;;;8.53;64.89
10462;BME280;5278;42.656;23.374;2023-04-29T03:07:19;94699.84;;;8.58;65.09
10462;BME280;5278;42.656;23.374;2023-04-29T03:09:46;94695.63;;;8.57;65.64
10462;BME280;5278;42.656;23.374;2023-04-29T03:12:12;94686.25;;;8.56;66.03
10462;BME280;5278;42.656;23.374;2023-04-29T03:14:41;94683.81;;;8.55;65.50
10462;BME280;5278;42.656;23.374;2023-04-29T03:17:08;94681.53;;;8.52;66.59
10462;BME280;5278;42.656;23.374;2023-04-29T03:19:35;94683.34;;;8.51;67.18
10462;BME280;5278;42.656;23.374;2023-04-29T03:22:02;94681.06;;;8.56;66.97
10462;BME280;5278;42.656;23.374;2023-04-29T03:24:30;94677.69;;;8.56;67.38
10462;BME280;5278;42.656;23.374;2023-04-29T03:26:57;94685.25;;;8.57;67.98
10462;BME280;5278;42.656;23.374;2023-04-29T03:29:25;94666.16;;;8.34;67.35
10462;BME280;5278;42.656;23.374;2023-04-29T03:31:53;94689.63;;;8.57;67.34
10462;BME280;5278;42.656;23.374;2023-04-29T03:34:21;94704.72;;;8.61;67.36
10462;BME280;5278;42.656;23.374;2023-04-29T03:36:48;94711.81;;;8.59;67.62
10462;BME280;5278;42.656;23.374;2023-04-29T03:39:15;94711.47;;;8.54;68.06
10462;BME280;5278;42.656;23.374;2023-04-29T03:41:43;94689.94;;;8.30;68.29
10462;BME280;5278;42.656;23.374;2023-04-29T03:44:12;94713.41;;;8.44;68.33
10462;BME280;5278;42.656;23.374;2023-04-29T03:46:39;94728.63;;;8.47;68.47
10462;BME280;5278;42.656;23.374;2023-04-29T03:49:06;94733.78;;;8.47;68.29
10462;BME280;5278;42.656;23.374;2023-04-29T03:51:33;94719.88;;;8.48;68.65
10462;BME280;5278;42.656;23.374;2023-04-29T03:54:00;94711.63;;;8.53;69.03
10462;BME280;5278;42.656;23.374;2023-04-29T03:56:26;94712.59;;;8.52;69.48
10462;BME280;5278;42.656;23.374;2023-04-29T03:58:55;94718.63;;;8.60;69.55
10462;BME280;5278;42.656;23.374;2023-04-29T04:01:22;94702.13;;;8.61;69.56
10462;BME280;5278;42.656;23.374;2023-04-29T04:03:48;94703.56;;;8.72;69.02
10462;BME280;5278;42.656;23.374;2023-04-29T04:06:15;94688.69;;;8.66;68.30
10462;BME280;5278;42.656;23.374;2023-04-29T04:08:42;94701.97;;;8.79;68.01
10462;BME280;5278;42.656;23.374;2023-04-29T04:11:09;94700.97;;;8.88;67.26
10462;BME280;5278;42.656;23.374;2023-04-29T04:13:37;94712.16;;;8.89;67.23
10462;BME280;5278;42.656;23.374;2023-04-29T04:16:06;94720.56;;;8.99;64.51
10462;BME280;5278;42.656;23.374;2023-04-29T04:18:33;94704.88;;;8.92;63.45
10462;BME280;5278;42.656;23.374;2023-04-29T04:21:04;94716.69;;;9.11;63.77
10462;BME280;5278;42.656;23.374;2023-04-29T04:23:31;94708.41;;;9.24;63.44
10462;BME280;5278;42.656;23.374;2023-04-29T04:25:58;94708.06;;;9.35;64.71
10462;BME280;5278;42.656;23.374;2023-04-29T04:28:25;94704.97;;;9.47;64.89
10462;BME280;5278;42.656;23.374;2023-04-29T04:30:52;94704.16;;;9.55;62.75
10462;BME280;5278;42.656;23.374;2023-04-29T04:33:20;94693.72;;;9.71;61.41
10462;BME280;5278;42.656;23.374;2023-04-29T04:35:47;94697.72;;;9.82;59.74
10462;BME280;5278;42.656;23.374;2023-04-29T04:38:14;94691.88;;;9.88;58.29
10462;BME280;5278;42.656;23.374;2023-04-29T04:40:41;94690.91;;;9.89;58.19
10462;BME280;5278;42.656;23.374;2023-04-29T04:43:09;94698.31;;;10.00;58.47
10462;BME280;5278;42.656;23.374;2023-04-29T04:45:36;94698.91;;;10.10;59.63
10462;BME280;5278;42.656;23.374;2023-04-29T04:48:03;94699.56;;;10.20;59.83
10462;BME280;5278;42.656;23.374;2023-04-29T04:50:31;94612.25;;;9.88;63.28
10462;BME280;5278;42.656;23.374;2023-04-29T04:52:58;94712.03;;;10.48;64.03
10462;BME280;5278;42.656;23.374;2023-04-29T04:55:25;94721.63;;;10.47;64.05
10462;BME280;5278;42.656;23.374;2023-04-29T04:57:52;94732.75;;;10.64;63.51
10462;BME280;5278;42.656;23.374;2023-04-29T05:00:19;94709.00;;;10.90;62.91
10462;BME280;5278;42.656;23.374;2023-04-29T05:02:46;94700.94;;;11.22;61.82
10462;BME280;5278;42.656;23.374;2023-04-29T05:05:13;94706.94;;;11.60;60.74
10462;BME280;5278;42.656;23.374;2023-04-29T05:07:41;94695.19;;;11.93;59.14
10462;BME280;5278;42.656;23.374;2023-04-29T05:10:09;94682.22;;;12.29;55.99
10462;BME280;5278;42.656;23.374;2023-04-29T05:12:36;94570.44;;;11.77;54.26
10462;BME280;5278;42.656;23.374;2023-04-29T05:15:03;94679.06;;;12.76;51.99
10462;BME280;5278;42.656;23.374;2023-04-29T05:17:30;94683.38;;;12.84;50.20
10462;BME280;5278;42.656;23.374;2023-04-29T05:19:56;94596.19;;;12.44;50.41
10462;BME280;5278;42.656;23.374;2023-04-29T05:22:23;94660.06;;;13.25;50.32
10462;BME280;5278;42.656;23.374;2023-04-29T05:24:52;94653.38;;;13.44;49.96
10462;BME280;5278;42.656;23.374;2023-04-29T05:27:19;94673.88;;;13.47;47.72
10462;BME280;5278;42.656;23.374;2023-04-29T05:29:46;94658.63;;;13.22;47.66
10462;BME280;5278;42.656;23.374;2023-04-29T05:32:13;94655.69;;;13.11;48.34
10462;BME280;5278;42.656;23.374;2023-04-29T05:34:40;94619.97;;;13.05;48.88
10462;BME280;5278;42.656;23.374;2023-04-29T05:37:08;94655.78;;;13.45;48.02
10462;BME280;5278;42.656;23.374;2023-04-29T05:39:35;94660.16;;;13.72;47.15
10462;BME280;5278;42.656;23.374;2023-04-29T05:42:04;94661.53;;;14.03;46.77
10462;BME280;5278;42.656;23.374;2023-04-29T05:44:31;94591.69;;;13.77;45.13
10462;BME280;5278;42.656;23.374;2023-04-29T05:46:59;94646.25;;;14.60;44.30
10462;BME280;5278;42.656;23.374;2023-04-29T05:49:26;94648.69;;;14.69;43.63
10462;BME280;5278;42.656;23.374;2023-04-29T05:51:52;94647.28;;;14.73;43.58
10462;BME280;5278;42.656;23.374;2023-04-29T05:54:19;94624.94;;;14.63;42.99
10462;BME280;5278;42.656;23.374;2023-04-29T05:56:46;94649.91;;;14.92;43.24
10462;BME280;5278;42.656;23.374;2023-04-29T05:59:15;94655.56;;;15.22;42.24
10462;BME280;5278;42.656;23.374;2023-04-29T06:01:42;94651.88;;;15.82;41.67
10462;BME280;5278;42.656;23.374;2023-04-29T06:04:08;94653.47;;;16.79;39.67
10462;BME280;5278;42.656;23.374;2023-04-29T06:06:35;94646.91;;;17.69;38.94
10462;BME280;5278;42.656;23.374;2023-04-29T06:09:03;94644.19;;;18.67;36.74
10462;BME280;5278;42.656;23.374;2023-04-29T06:11:30;94643.66;;;19.41;35.29
10462;BME280;5278;42.656;23.374;2023-04-29T06:13:57;94644.13;;;19.85;33.83
10462;BME280;5278;42.656;23.374;2023-04-29T06:16:25;94623.47;;;20.05;33.68
10462;BME280;5278;42.656;23.374;2023-04-29T06:18:52;94620.91;;;20.61;32.78
10462;BME280;5278;42.656;23.374;2023-04-29T06:21:19;94637.31;;;21.09;31.84
10462;BME280;5278;42.656;23.374;2023-04-29T06:23:46;94532.44;;;20.76;31.28
10462;BME280;5278;42.656;23.374;2023-04-29T06:26:13;94642.75;;;22.02;30.33
10462;BME280;5278;42.656;23.374;2023-04-29T06:28:40;94630.56;;;22.66;30.16
10462;BME280;5278;42.656;23.374;2023-04-29T06:31:06;94640.34;;;23.14;28.82
10462;BME280;5278;42.656;23.374;2023-04-29T06:33:35;94635.38;;;23.23;28.31
10462;BME280;5278;42.656;23.374;2023-04-29T06:36:02;94638.19;;;23.75;28.14
10462;BME280;5278;42.656;23.374;2023-04-29T06:38:29;94633.06;;;24.06;27.28
10462;BME280;5278;42.656;23.374;2023-04-29T06:40:56;94608.53;;;24.40;26.61
10462;BME280;5278;42.656;23.374;2023-04-29T06:43:25;94552.19;;;24.33;26.12
10462;BME280;5278;42.656;23.374;2023-04-29T06:45:52;94624.16;;;25.14;25.23
10462;BME280;5278;42.656;23.374;2023-04-29T06:48:19;94620.97;;;25.48;25.16
10462;BME280;5278;42.656;23.374;2023-04-29T06:50:50;94624.69;;;25.82;24.74
10462;BME280;5278;42.656;23.374;2023-04-29T06:53:17;94621.69;;;26.09;24.35
10462;BME280;5278;42.656;23.374;2023-04-29T06:55:44;94628.03;;;26.38;24.23
10462;BME280;5278;42.656;23.374;2023-04-29T06:58:11;94623.84;;;26.71;23.79
10462;BME280;5278;42.656;23.374;2023-04-29T07:00:38;94615.66;;;26.58;23.64
10462;BME280;5278;42.656;23.374;2023-04-29T07:03:05;94628.16;;;25.78;24.00
10462;BME280;5278;42.656;23.374;2023-04-29T07:05:32;94618.22;;;24.82;25.49
10462;BME280;5278;42.656;23.374;2023-04-29T07:08:01;94630.78;;;24.24;25.53
10462;BME280;5278;42.656;23.374;2023-04-29T07:10:27;94610.31;;;23.78;26.45
10462;BME280;5278;42.656;23.374;2023-04-29T07:12:55;94620.41;;;23.44;27.03
10462;BME280;5278;42.656;23.374;2023-04-29T07:15:22;94620.16;;;23.13;28.79
10462;BME280;5278;42.656;23.374;2023-04-29T07:17:49;94614.44;;;23.27;28.47
10462;BME280;5278;42.656;23.374;2023-04-29T07:20:16;94611.03;;;23.63;27.72
10462;BME280;5278;42.656;23.374;2023-04-29T07:22:43;94616.09;;;23.33;27.49
10462;BME280;5278;42.656;23.374;2023-04-29T07:25:11;94613.69;;;22.72;28.76
10462;BME280;5278;42.656;23.374;2023-04-29T07:27:39;94624.31;;;22.51;28.97
10462;BME280;5278;42.656;23.374;2023-04-29T07:30:07;94621.13;;;23.02;28.90
10462;BME280;5278;42.656;23.374;2023-04-29T07:32:34;94616.38;;;23.68;27.55
10462;BME280;5278;42.656;23.374;2023-04-29T07:35:03;94612.22;;;23.87;27.13
10462;BME280;5278;42.656;23.374;2023-04-29T07:37:30;94612.69;;;24.21;26.84
10462;BME280;5278;42.656;23.374;2023-04-29T07:39:56;94620.94;;;25.02;26.07
10462;BME280;5278;42.656;23.374;2023-04-29T07:42:25;94610.78;;;26.00;24.98
10462;BME280;5278;42.656;23.374;2023-04-29T07:44:52;94598.47;;;26.84;23.84
10462;BME280;5278;42.656;23.374;2023-04-29T07:47:18;94553.81;;;27.33;23.04
10462;BME280;5278;42.656;23.374;2023-04-29T07:49:45;94599.50;;;28.61;22.05
10462;BME280;5278;42.656;23.374;2023-04-29T07:52:12;94567.78;;;29.10;21.10
10462;BME280;5278;42.656;23.374;2023-04-29T07:54:39;94569.69;;;29.75;20.62
10462;BME280;5278;42.656;23.374;2023-04-29T07:57:09;94589.31;;;30.30;20.19
10462;BME280;5278;42.656;23.374;2023-04-29T07:59:37;94590.00;;;30.76;19.22
10462;BME280;5278;42.656;23.374;2023-04-29T08:02:04;94581.06;;;30.67;19.22
10462;BME280;5278;42.656;23.374;2023-04-29T08:04:31;94582.16;;;30.66;19.23
10462;BME280;5278;42.656;23.374;2023-04-29T08:06:58;94582.16;;;30.66;19.84
10462;BME280;5278;42.656;23.374;2023-04-29T08:09:25;94585.25;;;31.32;19.48
10462;BME280;5278;42.656;23.374;2023-04-29T08:11:51;94586.06;;;31.77;18.98
10462;BME280;5278;42.656;23.374;2023-04-29T08:14:18;94585.94;;;31.59;18.33
10462;BME280;5278;42.656;23.374;2023-04-29T08:16:47;94584.47;;;31.76;18.52
10462;BME280;5278;42.656;23.374;2023-04-29T08:19:13;94581.09;;;32.32;18.26
10462;BME280;5278;42.656;23.374;2023-04-29T08:21:40;94570.44;;;32.66;18.03
10462;BME280;5278;42.656;23.374;2023-04-29T08:24:07;94572.38;;;33.43;17.62
10462;BME280;5278;42.656;23.374;2023-04-29T08:26:34;94554.25;;;33.87;16.51
10462;BME280;5278;42.656;23.374;2023-04-29T08:29:01;94566.66;;;34.55;15.66
10462;BME280;5278;42.656;23.374;2023-04-29T08:31:28;94560.22;;;34.68;14.98
10462;BME280;5278;42.656;23.374;2023-04-29T08:33:56;94564.31;;;34.45;15.33
10462;BME280;5278;42.656;23.374;2023-04-29T08:36:23;94542.44;;;34.38;16.85
10462;BME280;5278;42.656;23.374;2023-04-29T08:38:50;94565.47;;;34.94;15.77
10462;BME280;5278;42.656;23.374;2023-04-29T08:41:17;94561.47;;;35.21;15.96
10462;BME280;5278;42.656;23.374;2023-04-29T08:43:44;94473.59;;;34.94;15.43
10462;BME280;5278;42.656;23.374;2023-04-29T08:46:12;94560.34;;;35.22;15.96
10462;BME280;5278;42.656;23.374;2023-04-29T08:48:39;94565.53;;;34.27;16.39
10462;BME280;5278;42.656;23.374;2023-04-29T08:51:10;94565.75;;;33.32;16.91
10462;BME280;5278;42.656;23.374;2023-04-29T08:53:37;94556.03;;;32.71;17.29
10462;BME280;5278;42.656;23.374;2023-04-29T08:56:15;94549.31;;;32.51;16.39
10462;BME280;5278;42.656;23.374;2023-04-29T08:58:46;94547.09;;;32.53;16.51
10462;BME280;5278;42.656;23.374;2023-04-29T09:01:16;94541.81;;;32.96;15.72
10462;BME280;5278;42.656;23.374;2023-04-29T09:03:49;94526.56;;;33.35;15.77
10462;BME280;5278;42.656;23.374;2023-04-29T09:06:19;94540.34;;;34.05;15.82
10462;BME280;5278;42.656;23.374;2023-04-29T09:08:46;94529.41;;;34.69;15.10
10462;BME280;5278;42.656;23.374;2023-04-29T09:11:14;94533.19;;;35.18;14.21
10462;BME280;5278;42.656;23.374;2023-04-29T09:13:41;94531.84;;;35.24;13.89
10462;BME280;5278;42.656;23.374;2023-04-29T09:16:10;94533.22;;;35.10;14.72
10462;BME280;5278;42.656;23.374;2023-04-29T09:18:44;94527.94;;;34.22;15.01
10462;BME280;5278;42.656;23.374;2023-04-29T09:21:13;94520.53;;;33.46;15.85
10462;BME280;5278;42.656;23.374;2023-04-29T09:23:42;94530.22;;;33.47;15.98
10462;BME280;5278;42.656;23.374;2023-04-29T09:26:08;94521.88;;;33.78;15.01
10462;BME280;5278;42.656;23.374;2023-04-29T09:28:35;94521.69;;;33.92;15.70
10462;BME280;5278;42.656;23.374;2023-04-29T09:31:04;94528.06;;;34.25;15.59
10462;BME280;5278;42.656;23.374;2023-04-29T09:33:50;94516.66;;;34.49;14.57
10462;BME280;5278;42.656;23.374;2023-04-29T09:36:46;94510.66;;;34.64;14.65
10462;BME280;5278;42.656;23.374;2023-04-29T09:39:15;94504.03;;;34.62;14.25
10462;BME280;5278;42.656;23.374;2023-04-29T09:41:57;94510.69;;;33.50;15.85
10462;BME280;5278;42.656;23.374;2023-04-29T09:44:29;94524.66;;;32.58;16.17
10462;BME280;5278;42.656;23.374;2023-04-29T09:46:58;94475.72;;;31.99;16.73
10462;BME280;5278;42.656;23.374;2023-04-29T09:49:28;94506.88;;;31.91;16.55
10462;BME280;5278;42.656;23.374;2023-04-29T09:51:57;94499.78;;;32.04;16.69
10462;BME280;5278;42.656;23.374;2023-04-29T09:54:27;94503.19;;;31.79;16.85
10462;BME280;5278;42.656;23.374;2023-04-29T09:56:56;94498.94;;;31.78;16.91
10462;BME280;5278;42.656;23.374;2023-04-29T09:59:24;94428.13;;;31.99;16.47
10462;BME280;5278;42.656;23.374;2023-04-29T10:01:52;94491.72;;;33.21;16.00
10462;BME280;5278;42.656;23.374;2023-04-29T10:04:20;94477.69;;;33.53;15.63
10462;BME280;5278;42.656;23.374;2023-04-29T10:06:48;94358.06;;;32.65;15.60
10462;BME280;5278;42.656;23.374;2023-04-29T10:09:16;94468.16;;;33.56;15.82
10462;BME280;5278;42.656;23.374;2023-04-29T10:11:47;94462.59;;;33.61;15.53
10462;BME280;5278;42.656;23.374;2023-04-29T10:14:16;94468.78;;;33.61;15.63
10462;BME280;5278;42.656;23.374;2023-04-29T10:16:47;94470.78;;;33.26;15.95
10462;BME280;5278;42.656;23.374;2023-04-29T10:19:18;94423.97;;;32.67;15.99
10462;BME280;5278;42.656;23.374;2023-04-29T10:21:50;94471.75;;;32.62;16.39
10462;BME280;5278;42.656;23.374;2023-04-29T10:24:21;94461.41;;;32.12;16.30
10462;BME280;5278;42.656;23.374;2023-04-29T10:26:50;94464.19;;;31.59;16.98
10462;BME280;5278;42.656;23.374;2023-04-29T10:29:18;94463.22;;;31.55;17.01
10462;BME280;5278;42.656;23.374;2023-04-29T10:31:47;94451.63;;;31.77;17.21
10462;BME280;5278;42.656;23.374;2023-04-29T10:34:17;94443.81;;;31.58;16.50
10462;BME280;5278;42.656;23.374;2023-04-29T10:36:45;94442.91;;;31.09;18.67
10462;BME280;5278;42.656;23.374;2023-04-29T10:39:20;94439.63;;;30.68;18.16
10462;BME280;5278;42.656;23.374;2023-04-29T10:41:54;94450.78;;;30.12;17.24
10462;BME280;5278;42.656;23.374;2023-04-29T10:44:22;94457.84;;;29.21;19.94
10462;BME280;5278;42.656;23.374;2023-04-29T10:47:17;94452.56;;;28.51;19.27
10462;BME280;5278;42.656;23.374;2023-04-29T10:50:03;94453.81;;;27.97;21.57
10462;BME280;5278;42.656;23.374;2023-04-29T10:52:30;94455.47;;;27.93;20.58
10462;BME280;5278;42.656;23.374;2023-04-29T10:55:03;94459.22;;;27.45;22.21
10462;BME280;5278;42.656;23.374;2023-04-29T10:57:32;94457.31;;;27.21;21.44
10462;BME280;5278;42.656;23.374;2023-04-29T10:59:58;94451.63;;;27.04;20.62
10462;BME280;5278;42.656;23.374;2023-04-29T11:02:25;94475.75;;;26.50;21.78
10462;BME280;5278;42.656;23.374;2023-04-29T11:05:08;94443.28;;;26.43;22.45
10462;BME280;5278;42.656;23.374;2023-04-29T11:07:35;94436.78;;;26.15;22.33
10462;BME280;5278;42.656;23.374;2023-04-29T11:10:02;94448.47;;;26.19;22.33
10462;BME280;5278;42.656;23.374;2023-04-29T11:12:29;94442.47;;;26.42;21.68
10462;BME280;5278;42.656;23.374;2023-04-29T11:14:58;94447.91;;;26.27;22.02
10462;BME280;5278;42.656;23.374;2023-04-29T11:17:34;94347.63;;;25.58;22.83
10462;BME280;5278;42.656;23.374;2023-04-29T11:20:02;94445.50;;;26.21;23.08
10462;BME280;5278;42.656;23.374;2023-04-29T11:22:29;94433.09;;;26.06;22.50
10462;BME280;5278;42.656;23.374;2023-04-29T11:24:59;94442.47;;;25.98;22.70
10462;BME280;5278;42.656;23.374;2023-04-29T11:27:29;94376.00;;;25.04;23.54
10462;BME280;5278;42.656;23.374;2023-04-29T11:29:58;94409.53;;;25.00;22.68
10462;BME280;5278;42.656;23.374;2023-04-29T11:32:26;94439.50;;;25.30;23.52
10462;BME280;5278;42.656;23.374;2023-04-29T11:34:54;94442.69;;;25.33;23.50
10462;BME280;5278;42.656;23.374;2023-04-29T11:37:22;94431.81;;;25.24;22.95
10462;BME280;5278;42.656;23.374;2023-04-29T11:39:50;94435.84;;;25.01;23.34
10462;BME280;5278;42.656;23.374;2023-04-29T11:42:20;94419.09;;;24.75;23.41
10462;BME280;5278;42.656;23.374;2023-04-29T11:44:50;94430.25;;;24.52;24.51
10462;BME280;5278;42.656;23.374;2023-04-29T11:47:19;94365.94;;;24.15;24.01
10462;BME280;5278;42.656;23.374;2023-04-29T11:49:47;94441.69;;;24.83;24.53
10462;BME280;5278;42.656;23.374;2023-04-29T11:52:14;94436.13;;;24.90;23.80
10462;BME280;5278;42.656;23.374;2023-04-29T11:54:41;94439.03;;;24.78;23.41
10462;BME280;5278;42.656;23.374;2023-04-29T11:57:09;94433.97;;;24.81;24.10
10462;BME280;5278;42.656;23.374;2023-04-29T11:59:36;94435.81;;;24.86;24.41
10462;BME280;5278;42.656;23.374;2023-04-29T12:02:04;94425.75;;;24.78;23.98
10462;BME280;5278;42.656;23.374;2023-04-29T12:04:33;94435.06;;;24.70;24.42
10462;BME280;5278;42.656;23.374;2023-04-29T12:07:02;94432.41;;;24.50;25.08
10462;BME280;5278;42.656;23.374;2023-04-29T12:09:40;94435.31;;;24.38;25.04
10462;BME280;5278;42.656;23.374;2023-04-29T12:12:07;94389.56;;;24.11;24.90
10462;BME280;5278;42.656;23.374;2023-04-29T12:14:34;94429.44;;;24.26;24.73
10462;BME280;5278;42.656;23.374;2023-04-29T12:17:02;94432.59;;;24.13;25.24
10462;BME280;5278;42.656;23.374;2023-04-29T12:19:29;94424.63;;;24.08;25.94
10462;BME280;5278;42.656;23.374;2023-04-29T12:21:59;94427.25;;;24.03;25.75
10462;BME280;5278;42.656;23.374;2023-04-29T12:24:26;94418.47;;;23.92;26.30
10462;BME280;5278;42.656;23.374;2023-04-29T12:26:54;94429.34;;;23.81;26.22
10462;BME280;5278;42.656;23.374;2023-04-29T12:29:23;94418.94;;;23.69;27.01
10462;BME280;5278;42.656;23.374;2023-04-29T12:31:51;94426.09;;;23.69;26.39
10462;BME280;5278;42.656;23.374;2023-04-29T12:34:24;94334.66;;;23.24;26.22
10462;BME280;5278;42.656;23.374;2023-04-29T12:36:54;94411.28;;;23.83;26.81
10462;BME280;5278;42.656;23.374;2023-04-29T12:39:23;94412.88;;;23.84;26.74
10462;BME280;5278;42.656;23.374;2023-04-29T12:41:54;94409.16;;;23.80;26.26
10462;BME280;5278;42.656;23.374;2023-04-29T12:44:23;94411.81;;;23.75;26.61
10462;BME280;5278;42.656;23.374;2023-04-29T12:46:50;94396.31;;;23.51;27.17
10462;BME280;5278;42.656;23.374;2023-04-29T12:49:18;94408.28;;;23.59;27.43
10462;BME280;5278;42.656;23.374;2023-04-29T12:51:46;94407.78;;;23.72;26.77
10462;BME280;5278;42.656;23.374;2023-04-29T12:54:12;94395.09;;;23.79;26.73
10462;BME280;5278;42.656;23.374;2023-04-29T12:56:41;94400.47;;;24.10;26.22
10462;BME280;5278;42.656;23.374;2023-04-29T12:59:09;94404.75;;;24.31;26.48
10462;BME280;5278;42.656;23.374;2023-04-29T13:01:36;94394.41;;;24.39;26.26
10462;BME280;5278;42.656;23.374;2023-04-29T13:04:03;94394.91;;;24.47;26.16
10462;BME280;5278;42.656;23.374;2023-04-29T13:06:33;94393.06;;;24.62;26.06
10462;BME280;5278;42.656;23.374;2023-04-29T13:09:04;94393.56;;;24.79;25.84